sensor_id;sensor_type;location;lat;lon;timestamp;pressure;altitude;pressure_sealevel;temperature;humidity
59154;BME280;44935;48.944;9.418;2022-12-16T00:01:43;97424.37;;;2.86;44.80
59154;BME280;44935;48.944;9.418;2022-12-16T00:04:11;97429.05;;;2.57;45.68
59154;BME280;44935;48.944;9.418;2022-12-16T00:06:38;97428.00;;;2.25;45.84
59154;BME280;44935;48.944;9.418;2022-12-16T00:09:05;97432.49;;;2.50;45.66
59154;BME280;44935;48.944;9.418;2022-12-16T00:11:32;97434.75;;;2.38;45.19
59154;BME280;44935;48.944;9.418;2022-12-16T00:13:58;97434.55;;;2.60;45.08
59154;BME280;44935;48.944;9.418;2022-12-16T00:16:26;97433.11;;;2.63;45.53
59154;BME280;44935;48.944;9.418;2022-12-16T00:18:53;97437.03;;;0.89;47.33
59154;BME280;44935;48.944;9.418;2022-12-16T00:21:20;97436.57;;;1.80;46.60
59154;BME280;44935;48.944;9.418;2022-12-16T00:23:47;97438.04;;;2.10;45.31
59154;BME280;44935;48.944;9.418;2022-12-16T00:26:14;97437.30;;;2.33;45.98
59154;BME280;44935;48.944;9.418;2022-12-16T00:28:42;97437.90;;;1.12;47.88
59154;BME280;44935;48.944;9.418;2022-12-16T00:31:09;97435.22;;;1.76;46.28
59154;BME280;44935;48.944;9.418;2022-12-16T00:33:36;97432.06;;;2.13;46.42
59154;BME280;44935;48.944;9.418;2022-12-16T00:36:03;97426.16;;;2.30;44.82
59154;BME280;44935;48.944;9.418;2022-12-16T00:38:30;97422.18;;;2.46;45.65
59154;BME280;44935;48.944;9.418;2022-12-16T00:40:58;97428.19;;;2.06;45.81
59154;BME280;44935;48.944;9.418;2022-12-16T00:43:25;97428.70;;;2.30;45.63
59154;BME280;44935;48.944;9.418;2022-12-16T00:45:53;97434.25;;;2.34;45.80
59154;BME280;44935;48.944;9.418;2022-12-16T00:48:19;97436.40;;;2.15;45.91
59154;BME280;44935;48.944;9.418;2022-12-16T00:50:49;97442.07;;;1.78;46.77
59154;BME280;44935;48.944;9.418;2022-12-16T00:53:16;97440.73;;;0.80;47.14
59154;BME280;44935;48.944;9.418;2022-12-16T00:55:43;97441.96;;;2.22;46.09
59154;BME280;44935;48.944;9.418;2022-12-16T00:58:10;97447.70;;;2.27;46.17
59154;BME280;44935;48.944;9.418;2022-12-16T01:00:37;97452.56;;;1.29;47.78
59154;BME280;44935;48.944;9.418;2022-12-16T01:03:04;97458.77;;;1.86;46.26
59154;BME280;44935;48.944;9.418;2022-12-16T01:05:31;97463.19;;;2.25;46.12
59154;BME280;44935;48.944;9.418;2022-12-16T01:07:58;97463.58;;;1.92;46.20
59154;BME280;44935;48.944;9.418;2022-12-16T01:10:25;97465.56;;;2.52;44.71
59154;BME280;44935;48.944;9.418;2022-12-16T01:12:52;97469.63;;;2.21;44.58
59154;BME280;44935;48.944;9.418;2022-12-16T01:15:19;97470.37;;;2.83;43.92
59154;BME280;44935;48.944;9.418;2022-12-16T01:17:46;97474.58;;;3.11;43.84
59154;BME280;44935;48.944;9.418;2022-12-16T01:20:13;97474.99;;;3.11;43.47
59154;BME280;44935;48.944;9.418;2022-12-16T01:22:40;97477.41;;;2.90;43.51
59154;BME280;44935;48.944;9.418;2022-12-16T01:25:09;97477.07;;;2.69;45.13
59154;BME280;44935;48.944;9.418;2022-12-16T01:27:36;97485.01;;;2.58;44.92
59154;BME280;44935;48.944;9.418;2022-12-16T01:30:04;97487.08;;;2.79;44.73
59154;BME280;44935;48.944;9.418;2022-12-16T01:32:31;97487.10;;;3.03;43.82
59154;BME280;44935;48.944;9.418;2022-12-16T01:34:58;97488.97;;;3.05;43.49
59154;BME280;44935;48.944;9.418;2022-12-16T01:37:25;97490.93;;;2.82;43.85
59154;BME280;44935;48.944;9.418;2022-12-16T01:39:52;97490.21;;;2.96;43.70
59154;BME280;44935;48.944;9.418;2022-12-16T01:42:21;97486.89;;;2.89;43.84
59154;BME280;44935;48.944;9.418;2022-12-16T01:44:50;97481.93;;;2.91;43.66
59154;BME280;44935;48.944;9.418;2022-12-16T01:47:20;97479.49;;;3.40;43.60
59154;BME280;44935;48.944;9.418;2022-12-16T01:49:52;97477.68;;;2.99;43.61
59154;BME280;44935;48.944;9.418;2022-12-16T01:52:22;97478.08;;;2.70;44.45
59154;BME280;44935;48.944;9.418;2022-12-16T01:54:53;97483.70;;;2.64;45.66
59154;BME280;44935;48.944;9.418;2022-12-16T01:57:27;97490.56;;;2.74;45.32
59154;BME280;44935;48.944;9.418;2022-12-16T01:59:56;97494.62;;;2.06;46.08
59154;BME280;44935;48.944;9.418;2022-12-16T02:02:23;97501.18;;;1.89;47.01
59154;BME280;44935;48.944;9.418;2022-12-16T02:04:51;97503.66;;;1.77;47.41
59154;BME280;44935;48.944;9.418;2022-12-16T02:07:18;97508.04;;;1.65;47.81
59154;BME280;44935;48.944;9.418;2022-12-16T02:09:45;97510.45;;;1.35;48.17
59154;BME280;44935;48.944;9.418;2022-12-16T02:12:20;97511.21;;;1.90;47.87
59154;BME280;44935;48.944;9.418;2022-12-16T02:15:18;97513.70;;;1.31;48.30
59154;BME280;44935;48.944;9.418;2022-12-16T02:17:55;97517.88;;;1.57;48.74
59154;BME280;44935;48.944;9.418;2022-12-16T02:21:45;97523.03;;;1.43;48.77
59154;BME280;44935;48.944;9.418;2022-12-16T02:24:27;97527.69;;;1.63;48.43
59154;BME280;44935;48.944;9.418;2022-12-16T02:27:29;97527.32;;;1.52;48.22
59154;BME280;44935;48.944;9.418;2022-12-16T02:30:06;97524.65;;;1.63;47.92
59154;BME280;44935;48.944;9.418;2022-12-16T02:32:47;97525.40;;;1.93;47.65
59154;BME280;44935;48.944;9.418;2022-12-16T02:35:25;97522.41;;;1.75;47.42
59154;BME280;44935;48.944;9.418;2022-12-16T02:38:05;97526.55;;;1.65;46.64
59154;BME280;44935;48.944;9.418;2022-12-16T02:40:40;97526.28;;;2.29;46.41
59154;BME280;44935;48.944;9.418;2022-12-16T02:43:14;97520.97;;;2.60;45.07
59154;BME280;44935;48.944;9.418;2022-12-16T02:45:44;97515.52;;;2.69;44.72
59154;BME280;44935;48.944;9.418;2022-12-16T02:48:11;97514.92;;;2.98;43.83
59154;BME280;44935;48.944;9.418;2022-12-16T02:50:42;97514.26;;;3.05;43.64
59154;BME280;44935;48.944;9.418;2022-12-16T02:53:12;97514.85;;;2.81;44.47
59154;BME280;44935;48.944;9.418;2022-12-16T02:55:47;97521.59;;;1.94;45.87
59154;BME280;44935;48.944;9.418;2022-12-16T02:58:22;97525.59;;;1.95;46.42
59154;BME280;44935;48.944;9.418;2022-12-16T03:01:05;97526.37;;;1.43;47.21
59154;BME280;44935;48.944;9.418;2022-12-16T03:03:41;97527.95;;;1.15;48.49
59154;BME280;44935;48.944;9.418;2022-12-16T03:06:11;97527.52;;;1.34;48.29
59154;BME280;44935;48.944;9.418;2022-12-16T03:08:44;97527.76;;;1.59;48.00
59154;BME280;44935;48.944;9.418;2022-12-16T03:11:14;97531.08;;;1.46;47.69
59154;BME280;44935;48.944;9.418;2022-12-16T03:13:45;97535.86;;;1.22;48.14
59154;BME280;44935;48.944;9.418;2022-12-16T03:16:17;97538.93;;;1.24;48.26
59154;BME280;44935;48.944;9.418;2022-12-16T03:18:49;97544.85;;;0.92;48.99
59154;BME280;44935;48.944;9.418;2022-12-16T03:21:20;97545.72;;;1.00;48.25
59154;BME280;44935;48.944;9.418;2022-12-16T03:23:51;97543.96;;;1.11;48.16
59154;BME280;44935;48.944;9.418;2022-12-16T03:26:23;97547.41;;;1.24;48.73
59154;BME280;44935;48.944;9.418;2022-12-16T03:28:54;97548.62;;;1.39;48.47
59154;BME280;44935;48.944;9.418;2022-12-16T03:31:30;97549.23;;;1.15;48.13
59154;BME280;44935;48.944;9.418;2022-12-16T03:34:06;97553.26;;;1.78;47.58
59154;BME280;44935;48.944;9.418;2022-12-16T03:36:36;97554.67;;;1.80;47.40
59154;BME280;44935;48.944;9.418;2022-12-16T03:39:04;97554.48;;;1.82;46.91
59154;BME280;44935;48.944;9.418;2022-12-16T03:41:33;97560.10;;;1.75;47.08
59154;BME280;44935;48.944;9.418;2022-12-16T03:44:01;97563.40;;;1.72;47.37
59154;BME280;44935;48.944;9.418;2022-12-16T03:46:28;97569.77;;;1.91;46.49
59154;BME280;44935;48.944;9.418;2022-12-16T03:48:56;97574.96;;;1.83;46.35
59154;BME280;44935;48.944;9.418;2022-12-16T03:51:23;97573.38;;;2.07;46.16
59154;BME280;44935;48.944;9.418;2022-12-16T03:53:50;97577.74;;;1.90;46.49
59154;BME280;44935;48.944;9.418;2022-12-16T03:56:17;97583.89;;;1.66;46.68
59154;BME280;44935;48.944;9.418;2022-12-16T03:58:44;97585.16;;;1.77;46.47
59154;BME280;44935;48.944;9.418;2022-12-16T04:01:11;97586.21;;;1.81;46.25
59154;BME280;44935;48.944;9.418;2022-12-16T04:03:38;97588.59;;;2.06;46.16
59154;BME280;44935;48.944;9.418;2022-12-16T04:06:06;97589.06;;;2.10;45.36
59154;BME280;44935;48.944;9.418;2022-12-16T04:08:32;97596.10;;;2.07;45.44
59154;BME280;44935;48.944;9.418;2022-12-16T04:10:59;97599.88;;;2.40;44.90
59154;BME280;44935;48.944;9.418;2022-12-16T04:13:27;97599.20;;;1.99;45.94
59154;BME280;44935;48.944;9.418;2022-12-16T04:15:55;97597.08;;;1.86;45.31
59154;BME280;44935;48.944;9.418;2022-12-16T04:18:21;97602.07;;;1.71;46.06
59154;BME280;44935;48.944;9.418;2022-12-16T04:20:52;97605.56;;;2.02;45.00
59154;BME280;44935;48.944;9.418;2022-12-16T04:23:23;97609.75;;;2.23;44.96
59154;BME280;44935;48.944;9.418;2022-12-16T04:25:51;97612.75;;;2.25;44.68
59154;BME280;44935;48.944;9.418;2022-12-16T04:28:18;97613.09;;;2.38;44.63
59154;BME280;44935;48.944;9.418;2022-12-16T04:30:45;97616.85;;;2.56;44.40
59154;BME280;44935;48.944;9.418;2022-12-16T04:33:13;97619.45;;;2.90;43.95
59154;BME280;44935;48.944;9.418;2022-12-16T04:35:40;97617.40;;;2.35;44.05
59154;BME280;44935;48.944;9.418;2022-12-16T04:38:07;97620.98;;;2.58;44.02
59154;BME280;44935;48.944;9.418;2022-12-16T04:40:34;97616.01;;;2.82;43.07
59154;BME280;44935;48.944;9.418;2022-12-16T04:43:01;97612.99;;;2.90;43.09
59154;BME280;44935;48.944;9.418;2022-12-16T04:45:28;97622.19;;;2.28;44.51
59154;BME280;44935;48.944;9.418;2022-12-16T04:47:56;97627.82;;;2.39;44.00
59154;BME280;44935;48.944;9.418;2022-12-16T04:50:23;97634.77;;;1.93;44.38
59154;BME280;44935;48.944;9.418;2022-12-16T04:52:50;97635.77;;;2.91;43.44
59154;BME280;44935;48.944;9.418;2022-12-16T04:55:17;97640.70;;;2.59;42.78
59154;BME280;44935;48.944;9.418;2022-12-16T04:57:47;97636.86;;;2.53;43.96
59154;BME280;44935;48.944;9.418;2022-12-16T05:00:15;97642.75;;;2.28;44.78
59154;BME280;44935;48.944;9.418;2022-12-16T05:02:42;97644.82;;;1.95;44.34
59154;BME280;44935;48.944;9.418;2022-12-16T05:05:09;97647.32;;;1.98;45.42
59154;BME280;44935;48.944;9.418;2022-12-16T05:07:36;97645.40;;;1.67;46.34
59154;BME280;44935;48.944;9.418;2022-12-16T05:10:04;97645.01;;;2.04;45.10
59154;BME280;44935;48.944;9.418;2022-12-16T05:12:31;97647.75;;;1.99;45.23
59154;BME280;44935;48.944;9.418;2022-12-16T05:14:58;97649.42;;;1.78;46.08
59154;BME280;44935;48.944;9.418;2022-12-16T05:17:25;97653.77;;;1.77;45.98
59154;BME280;44935;48.944;9.418;2022-12-16T05:19:52;97659.10;;;1.81;45.21
59154;BME280;44935;48.944;9.418;2022-12-16T05:22:20;97666.36;;;1.56;44.96
59154;BME280;44935;48.944;9.418;2022-12-16T05:24:47;97669.78;;;1.37;45.81
59154;BME280;44935;48.944;9.418;2022-12-16T05:27:14;97667.18;;;1.89;44.41
59154;BME280;44935;48.944;9.418;2022-12-16T05:29:41;97667.87;;;1.78;44.81
59154;BME280;44935;48.944;9.418;2022-12-16T05:32:09;97676.07;;;2.08;44.09
59154;BME280;44935;48.944;9.418;2022-12-16T05:34:36;97676.54;;;2.15;44.12
59154;BME280;44935;48.944;9.418;2022-12-16T05:37:03;97679.66;;;2.40;44.67
59154;BME280;44935;48.944;9.418;2022-12-16T05:39:29;97683.73;;;1.88;44.96
59154;BME280;44935;48.944;9.418;2022-12-16T05:41:57;97693.92;;;2.48;44.54
59154;BME280;44935;48.944;9.418;2022-12-16T05:44:25;97700.20;;;1.80;45.06
59154;BME280;44935;48.944;9.418;2022-12-16T05:46:52;97704.52;;;1.62;46.35
59154;BME280;44935;48.944;9.418;2022-12-16T05:49:19;97705.97;;;1.56;46.42
59154;BME280;44935;48.944;9.418;2022-12-16T05:51:46;97705.45;;;1.12;46.91
59154;BME280;44935;48.944;9.418;2022-12-16T05:54:13;97707.39;;;1.00;47.74
59154;BME280;44935;48.944;9.418;2022-12-16T05:56:40;97713.91;;;0.80;46.97
59154;BME280;44935;48.944;9.418;2022-12-16T05:59:07;97722.74;;;1.10;47.37
59154;BME280;44935;48.944;9.418;2022-12-16T06:01:35;97724.48;;;1.12;47.98
59154;BME280;44935;48.944;9.418;2022-12-16T06:04:02;97728.90;;;0.84;47.70
59154;BME280;44935;48.944;9.418;2022-12-16T06:06:29;97728.54;;;0.83;46.96
59154;BME280;44935;48.944;9.418;2022-12-16T06:08:56;97729.88;;;0.68;46.77
59154;BME280;44935;48.944;9.418;2022-12-16T06:11:28;97733.68;;;0.66;47.61
59154;BME280;44935;48.944;9.418;2022-12-16T06:13:55;97745.54;;;0.74;47.50
59154;BME280;44935;48.944;9.418;2022-12-16T06:16:22;97750.01;;;0.81;46.46
59154;BME280;44935;48.944;9.418;2022-12-16T06:18:49;97753.69;;;0.89;47.10
59154;BME280;44935;48.944;9.418;2022-12-16T06:21:16;97756.79;;;0.88;47.23
59154;BME280;44935;48.944;9.418;2022-12-16T06:23:43;97759.28;;;0.79;46.99
59154;BME280;44935;48.944;9.418;2022-12-16T06:26:11;97765.40;;;1.04;47.15
59154;BME280;44935;48.944;9.418;2022-12-16T06:28:37;97769.47;;;0.97;46.57
59154;BME280;44935;48.944;9.418;2022-12-16T06:31:04;97774.15;;;0.94;46.70
59154;BME280;44935;48.944;9.418;2022-12-16T06:33:32;97775.00;;;0.94;46.64
59154;BME280;44935;48.944;9.418;2022-12-16T06:35:59;97780.88;;;0.85;46.16
59154;BME280;44935;48.944;9.418;2022-12-16T06:38:26;97783.03;;;0.79;45.42
59154;BME280;44935;48.944;9.418;2022-12-16T06:40:53;97779.89;;;0.64;46.46
59154;BME280;44935;48.944;9.418;2022-12-16T06:43:20;97784.33;;;0.75;47.38
59154;BME280;44935;48.944;9.418;2022-12-16T06:45:47;97789.40;;;0.58;47.49
59154;BME280;44935;48.944;9.418;2022-12-16T06:48:15;97793.84;;;1.01;46.01
59154;BME280;44935;48.944;9.418;2022-12-16T06:50:43;97797.68;;;0.64;47.21
59154;BME280;44935;48.944;9.418;2022-12-16T06:53:09;97806.92;;;0.73;47.12
59154;BME280;44935;48.944;9.418;2022-12-16T06:55:37;97813.64;;;0.69;47.41
59154;BME280;44935;48.944;9.418;2022-12-16T06:58:04;97819.46;;;0.67;47.73
59154;BME280;44935;48.944;9.418;2022-12-16T07:00:31;97822.20;;;0.64;47.11
59154;BME280;44935;48.944;9.418;2022-12-16T07:02:58;97823.47;;;0.63;47.49
59154;BME280;44935;48.944;9.418;2022-12-16T07:05:25;97825.90;;;0.46;47.46
59154;BME280;44935;48.944;9.418;2022-12-16T07:07:52;97833.23;;;0.45;47.69
59154;BME280;44935;48.944;9.418;2022-12-16T07:10:19;97844.65;;;0.40;47.46
59154;BME280;44935;48.944;9.418;2022-12-16T07:12:46;97845.41;;;0.52;47.97
59154;BME280;44935;48.944;9.418;2022-12-16T07:15:14;97850.25;;;0.83;47.40
59154;BME280;44935;48.944;9.418;2022-12-16T07:17:43;97854.55;;;0.89;47.26
59154;BME280;44935;48.944;9.418;2022-12-16T07:20:11;97859.31;;;0.61;46.87
59154;BME280;44935;48.944;9.418;2022-12-16T07:22:41;97866.68;;;1.21;45.86
59154;BME280;44935;48.944;9.418;2022-12-16T07:25:09;97868.51;;;1.14;46.43
59154;BME280;44935;48.944;9.418;2022-12-16T07:27:36;97867.37;;;0.93;46.43
59154;BME280;44935;48.944;9.418;2022-12-16T07:30:04;97867.90;;;1.12;46.74
59154;BME280;44935;48.944;9.418;2022-12-16T07:32:31;97869.41;;;0.90;46.43
59154;BME280;44935;48.944;9.418;2022-12-16T07:34:58;97872.95;;;0.89;46.78
59154;BME280;44935;48.944;9.418;2022-12-16T07:37:25;97875.46;;;1.01;47.09
59154;BME280;44935;48.944;9.418;2022-12-16T07:39:52;97879.51;;;0.89;47.08
59154;BME280;44935;48.944;9.418;2022-12-16T07:42:20;97885.31;;;0.92;47.15
59154;BME280;44935;48.944;9.418;2022-12-16T07:44:47;97884.76;;;0.91;47.46
59154;BME280;44935;48.944;9.418;2022-12-16T07:47:13;97887.83;;;0.94;47.55
59154;BME280;44935;48.944;9.418;2022-12-16T07:49:41;97891.26;;;0.95;46.16
59154;BME280;44935;48.944;9.418;2022-12-16T07:52:08;97892.14;;;0.93;46.66
59154;BME280;44935;48.944;9.418;2022-12-16T07:54:35;97897.25;;;1.08;46.41
59154;BME280;44935;48.944;9.418;2022-12-16T07:57:03;97901.79;;;1.13;47.14
59154;BME280;44935;48.944;9.418;2022-12-16T07:59:29;97910.50;;;1.05;47.10
59154;BME280;44935;48.944;9.418;2022-12-16T08:01:57;97914.53;;;0.91;47.14
59154;BME280;44935;48.944;9.418;2022-12-16T08:04:24;97913.79;;;0.61;47.49
59154;BME280;44935;48.944;9.418;2022-12-16T08:06:51;97919.61;;;0.49;47.80
59154;BME280;44935;48.944;9.418;2022-12-16T08:09:17;97927.05;;;0.67;48.23
59154;BME280;44935;48.944;9.418;2022-12-16T08:11:45;97929.06;;;0.45;47.59
59154;BME280;44935;48.944;9.418;2022-12-16T08:14:12;97933.01;;;0.59;47.45
59154;BME280;44935;48.944;9.418;2022-12-16T08:16:39;97931.68;;;0.51;47.93
59154;BME280;44935;48.944;9.418;2022-12-16T08:19:06;97934.73;;;0.59;47.83
59154;BME280;44935;48.944;9.418;2022-12-16T08:21:33;97938.97;;;0.77;47.87
59154;BME280;44935;48.944;9.418;2022-12-16T08:24:00;97940.39;;;1.20;47.54
59154;BME280;44935;48.944;9.418;2022-12-16T08:26:27;97949.38;;;0.78;47.18
59154;BME280;44935;48.944;9.418;2022-12-16T08:28:54;97946.16;;;1.00;47.13
59154;BME280;44935;48.944;9.418;2022-12-16T08:31:22;97948.92;;;1.02;47.05
59154;BME280;44935;48.944;9.418;2022-12-16T08:33:49;97958.51;;;0.91;46.88
59154;BME280;44935;48.944;9.418;2022-12-16T08:36:15;97964.06;;;0.81;46.28
59154;BME280;44935;48.944;9.418;2022-12-16T08:38:43;97970.68;;;1.23;47.18
59154;BME280;44935;48.944;9.418;2022-12-16T08:41:10;97973.33;;;0.72;47.15
59154;BME280;44935;48.944;9.418;2022-12-16T08:43:37;97973.23;;;0.90;46.75
59154;BME280;44935;48.944;9.418;2022-12-16T08:46:04;97974.01;;;1.22;46.75
59154;BME280;44935;48.944;9.418;2022-12-16T08:48:32;97980.25;;;1.25;45.32
59154;BME280;44935;48.944;9.418;2022-12-16T08:51:00;97982.04;;;1.53;45.95
59154;BME280;44935;48.944;9.418;2022-12-16T08:53:28;97983.82;;;1.09;46.60
59154;BME280;44935;48.944;9.418;2022-12-16T08:55:55;97989.25;;;1.29;45.32
59154;BME280;44935;48.944;9.418;2022-12-16T08:58:22;97994.76;;;1.29;45.93
59154;BME280;44935;48.944;9.418;2022-12-16T09:00:50;98002.30;;;1.18;45.81
59154;BME280;44935;48.944;9.418;2022-12-16T09:03:17;98011.52;;;0.98;45.67
59154;BME280;44935;48.944;9.418;2022-12-16T09:05:44;98018.18;;;0.97;46.39
59154;BME280;44935;48.944;9.418;2022-12-16T09:08:11;98016.53;;;1.24;46.30
59154;BME280;44935;48.944;9.418;2022-12-16T09:10:38;98017.27;;;1.15;46.11
59154;BME280;44935;48.944;9.418;2022-12-16T09:13:07;98023.71;;;0.48;45.86
59154;BME280;44935;48.944;9.418;2022-12-16T09:15:34;98023.56;;;1.36;44.80
59154;BME280;44935;48.944;9.418;2022-12-16T09:18:01;98022.87;;;1.56;45.76
59154;BME280;44935;48.944;9.418;2022-12-16T09:20:29;98025.47;;;1.71;45.73
59154;BME280;44935;48.944;9.418;2022-12-16T09:22:59;98029.76;;;1.43;45.78
59154;BME280;44935;48.944;9.418;2022-12-16T09:25:27;98032.38;;;1.20;45.01
59154;BME280;44935;48.944;9.418;2022-12-16T09:27:54;98033.42;;;1.76;45.49
59154;BME280;44935;48.944;9.418;2022-12-16T09:30:21;98034.24;;;1.61;44.85
59154;BME280;44935;48.944;9.418;2022-12-16T09:32:52;98036.64;;;1.64;44.31
59154;BME280;44935;48.944;9.418;2022-12-16T09:35:18;98038.78;;;1.60;45.28
59154;BME280;44935;48.944;9.418;2022-12-16T09:37:46;98040.48;;;1.75;44.16
59154;BME280;44935;48.944;9.418;2022-12-16T09:40:15;98039.58;;;1.66;44.13
59154;BME280;44935;48.944;9.418;2022-12-16T09:42:49;98043.97;;;1.78;44.11
59154;BME280;44935;48.944;9.418;2022-12-16T09:45:25;98042.43;;;1.25;44.24
59154;BME280;44935;48.944;9.418;2022-12-16T09:48:02;98045.28;;;1.63;44.51
59154;BME280;44935;48.944;9.418;2022-12-16T09:50:34;98046.96;;;1.23;44.54
59154;BME280;44935;48.944;9.418;2022-12-16T09:53:05;98049.11;;;0.81;45.73
59154;BME280;44935;48.944;9.418;2022-12-16T09:55:38;98053.17;;;1.05;43.86
59154;BME280;44935;48.944;9.418;2022-12-16T09:58:07;98054.93;;;0.77;45.51
59154;BME280;44935;48.944;9.418;2022-12-16T10:00:36;98058.18;;;0.94;46.53
59154;BME280;44935;48.944;9.418;2022-12-16T10:03:18;98055.76;;;1.04;45.53
59154;BME280;44935;48.944;9.418;2022-12-16T10:05:56;98053.38;;;0.59;45.25
59154;BME280;44935;48.944;9.418;2022-12-16T10:08:34;98054.25;;;-0.03;45.52
59154;BME280;44935;48.944;9.418;2022-12-16T10:11:10;98056.11;;;0.47;44.52
59154;BME280;44935;48.944;9.418;2022-12-16T10:13:47;98060.55;;;0.55;45.81
59154;BME280;44935;48.944;9.418;2022-12-16T10:16:20;98059.33;;;0.26;45.69
59154;BME280;44935;48.944;9.418;2022-12-16T10:18:56;98062.56;;;0.57;45.64
59154;BME280;44935;48.944;9.418;2022-12-16T10:21:30;98065.01;;;1.07;44.76
59154;BME280;44935;48.944;9.418;2022-12-16T10:24:03;98066.95;;;1.17;44.82
59154;BME280;44935;48.944;9.418;2022-12-16T10:26:41;98064.60;;;1.16;44.60
59154;BME280;44935;48.944;9.418;2022-12-16T10:29:17;98067.47;;;0.97;44.00
59154;BME280;44935;48.944;9.418;2022-12-16T10:31:44;98068.36;;;1.29;43.87
59154;BME280;44935;48.944;9.418;2022-12-16T10:34:14;98071.51;;;0.69;43.93
59154;BME280;44935;48.944;9.418;2022-12-16T10:36:41;98069.98;;;0.83;45.13
59154;BME280;44935;48.944;9.418;2022-12-16T10:39:18;98070.94;;;0.38;43.95
59154;BME280;44935;48.944;9.418;2022-12-16T10:41:51;98071.44;;;0.02;43.91
59154;BME280;44935;48.944;9.418;2022-12-16T10:44:23;98075.99;;;-0.15;45.53
59154;BME280;44935;48.944;9.418;2022-12-16T10:46:51;98075.16;;;0.53;45.55
59154;BME280;44935;48.944;9.418;2022-12-16T10:49:19;98076.42;;;-0.11;44.36
59154;BME280;44935;48.944;9.418;2022-12-16T10:51:47;98074.80;;;0.59;45.00
59154;BME280;44935;48.944;9.418;2022-12-16T10:54:31;98076.26;;;-0.27;45.47
59154;BME280;44935;48.944;9.418;2022-12-16T10:57:04;98079.96;;;0.02;46.87
59154;BME280;44935;48.944;9.418;2022-12-16T10:59:37;98077.65;;;0.18;44.49
59154;BME280;44935;48.944;9.418;2022-12-16T11:02:18;98081.73;;;0.43;45.79
59154;BME280;44935;48.944;9.418;2022-12-16T11:04:47;98083.87;;;0.67;44.39
59154;BME280;44935;48.944;9.418;2022-12-16T11:07:33;98087.83;;;1.05;43.64
59154;BME280;44935;48.944;9.418;2022-12-16T11:10:23;98088.29;;;0.66;43.87
59154;BME280;44935;48.944;9.418;2022-12-16T11:12:50;98088.43;;;0.45;42.70
59154;BME280;44935;48.944;9.418;2022-12-16T11:15:23;98085.56;;;0.40;45.66
59154;BME280;44935;48.944;9.418;2022-12-16T11:18:01;98091.24;;;0.42;45.36
59154;BME280;44935;48.944;9.418;2022-12-16T11:20:28;98094.03;;;0.37;45.71
59154;BME280;44935;48.944;9.418;2022-12-16T11:23:08;98099.89;;;-0.03;45.15
59154;BME280;44935;48.944;9.418;2022-12-16T11:25:35;98102.17;;;-0.14;46.58
59154;BME280;44935;48.944;9.418;2022-12-16T11:28:12;98095.89;;;-0.06;46.74
59154;BME280;44935;48.944;9.418;2022-12-16T11:30:39;98094.55;;;-0.53;45.78
59154;BME280;44935;48.944;9.418;2022-12-16T11:33:23;98099.13;;;-0.35;46.35
59154;BME280;44935;48.944;9.418;2022-12-16T11:35:53;98101.84;;;-0.30;46.38
59154;BME280;44935;48.944;9.418;2022-12-16T11:38:26;98107.05;;;0.06;46.81
59154;BME280;44935;48.944;9.418;2022-12-16T11:40:55;98114.01;;;0.30;46.03
59154;BME280;44935;48.944;9.418;2022-12-16T11:43:23;98112.34;;;0.18;47.09
59154;BME280;44935;48.944;9.418;2022-12-16T11:45:52;98108.00;;;0.45;45.60
59154;BME280;44935;48.944;9.418;2022-12-16T11:48:28;98105.55;;;0.53;45.71
59154;BME280;44935;48.944;9.418;2022-12-16T11:50:58;98104.63;;;0.59;45.97
59154;BME280;44935;48.944;9.418;2022-12-16T11:53:32;98105.81;;;0.25;46.49
59154;BME280;44935;48.944;9.418;2022-12-16T11:56:01;98111.09;;;0.38;45.04
59154;BME280;44935;48.944;9.418;2022-12-16T11:58:35;98112.26;;;0.31;44.64
59154;BME280;44935;48.944;9.418;2022-12-16T12:01:10;98118.44;;;0.66;45.08
59154;BME280;44935;48.944;9.418;2022-12-16T12:03:42;98121.87;;;0.51;44.12
59154;BME280;44935;48.944;9.418;2022-12-16T12:06:26;98129.04;;;-0.09;45.23
59154;BME280;44935;48.944;9.418;2022-12-16T12:09:00;98133.22;;;-0.14;44.90
59154;BME280;44935;48.944;9.418;2022-12-16T12:11:33;98135.41;;;0.16;44.15
59154;BME280;44935;48.944;9.418;2022-12-16T12:14:12;98132.30;;;0.40;44.61
59154;BME280;44935;48.944;9.418;2022-12-16T12:16:51;98133.13;;;0.39;44.31
59154;BME280;44935;48.944;9.418;2022-12-16T12:19:28;98141.96;;;0.36;44.32
59154;BME280;44935;48.944;9.418;2022-12-16T12:22:03;98144.01;;;0.51;43.86
59154;BME280;44935;48.944;9.418;2022-12-16T12:24:40;98142.00;;;0.38;43.66
59154;BME280;44935;48.944;9.418;2022-12-16T12:27:24;98149.58;;;-0.18;44.21
59154;BME280;44935;48.944;9.418;2022-12-16T12:30:03;98154.40;;;0.11;45.14
59154;BME280;44935;48.944;9.418;2022-12-16T12:32:38;98154.77;;;0.75;44.24
59154;BME280;44935;48.944;9.418;2022-12-16T12:35:23;98158.40;;;0.49;42.88
59154;BME280;44935;48.944;9.418;2022-12-16T12:38:04;98156.87;;;0.55;43.69
59154;BME280;44935;48.944;9.418;2022-12-16T12:40:41;98161.53;;;0.55;44.70
59154;BME280;44935;48.944;9.418;2022-12-16T12:43:21;98164.77;;;0.48;43.47
59154;BME280;44935;48.944;9.418;2022-12-16T12:45:56;98175.12;;;0.10;44.59
59154;BME280;44935;48.944;9.418;2022-12-16T12:48:34;98173.44;;;0.36;44.56
59154;BME280;44935;48.944;9.418;2022-12-16T12:51:12;98174.67;;;0.74;43.69
59154;BME280;44935;48.944;9.418;2022-12-16T12:53:47;98178.10;;;1.20;43.00
59154;BME280;44935;48.944;9.418;2022-12-16T12:56:27;98179.38;;;0.86;43.37
59154;BME280;44935;48.944;9.418;2022-12-16T12:59:02;98177.86;;;0.76;42.31
59154;BME280;44935;48.944;9.418;2022-12-16T13:01:31;98177.41;;;0.83;43.46
59154;BME280;44935;48.944;9.418;2022-12-16T13:04:06;98175.34;;;0.83;41.36
59154;BME280;44935;48.944;9.418;2022-12-16T13:06:39;98176.89;;;0.84;41.65
59154;BME280;44935;48.944;9.418;2022-12-16T13:09:23;98179.33;;;1.10;43.29
59154;BME280;44935;48.944;9.418;2022-12-16T13:12:28;98176.35;;;0.93;42.53
59154;BME280;44935;48.944;9.418;2022-12-16T13:15:02;98177.21;;;1.09;41.97
59154;BME280;44935;48.944;9.418;2022-12-16T13:18:12;98185.54;;;1.51;41.74
59154;BME280;44935;48.944;9.418;2022-12-16T13:20:40;98187.58;;;1.62;40.16
59154;BME280;44935;48.944;9.418;2022-12-16T13:23:27;98192.72;;;2.11;39.89
59154;BME280;44935;48.944;9.418;2022-12-16T13:26:03;98194.30;;;2.24;39.59
59154;BME280;44935;48.944;9.418;2022-12-16T13:28:32;98201.91;;;2.11;39.62